1895 Tropical Storm NOT_NAMED (1895245N18310)


IBTrACS version v04r00. Visit IBTrACS website for data access.
Please direct all questions to the IBTrACS Q and A forum

Storm track - Intensity - Wind Radii - Intensity Data - Source Data - All data

Summary Information

Storm ID 1895245N18310
Start Sep 1 12Z
Max Intensity 60 kt (Sep 8 12Z), 985 mb (Sep 8 12Z)
End Sep 8 12Z
ATCF IDs
Track status Best track data.

Storm track plot

Map of storm track

Intensity plots

Map of storm track

Radial wind information

No radial wind information for this storm


Position and Intensity Table

BASIN ISO_TIME_________ NATURE LAT LON MLC WIND MLC PRES
degrees north degrees east kts mb
NA 1895-09-01 12:00:00 TS 17.50 -50.00 35
NA 15:00:00 TS 17.95 -50.25 37
NA 18:00:00 TS 18.40 -50.50 40
NA 21:00:00 TS 18.85 -50.75 40
NA 1895-09-02 00:00:00 TS 19.30 -51.00 40
NA 03:00:00 TS 19.76 -51.25 40
NA 06:00:00 TS 20.20 -51.50 40
NA 09:00:00 TS 20.60 -51.77 40
NA 12:00:00 TS 21.00 -52.00 40
NA 15:00:00 TS 21.44 -52.17 42
NA 18:00:00 TS 21.90 -52.30 45
NA 21:00:00 TS 22.36 -52.46 45
NA 1895-09-03 00:00:00 TS 22.80 -52.60 45
NA 03:00:00 TS 23.20 -52.67 45
NA 06:00:00 TS 23.60 -52.70 45
NA 09:00:00 TS 24.04 -52.76 45
NA 12:00:00 TS 24.50 -52.80 45
NA 15:00:00 TS 24.99 -52.81 47
NA 18:00:00 TS 25.50 -52.80 50
NA 21:00:00 TS 26.00 -52.80 50
NA 1895-09-04 00:00:00 TS 26.50 -52.80 50
NA 03:00:00 TS 27.00 -52.80 50
NA 06:00:00 TS 27.50 -52.80 50
NA 09:00:00 TS 27.98 -52.81 50
NA 12:00:00 TS 28.50 -52.80 50
NA 15:00:00 TS 29.09 -52.76 50
NA 18:00:00 TS 29.70 -52.60 50
NA 21:00:00 TS 30.26 -52.26 50
NA 1895-09-05 00:00:00 TS 30.80 -51.80 50
NA 03:00:00 TS 31.35 -51.31 50
NA 06:00:00 TS 31.90 -50.80 50
NA 09:00:00 TS 32.46 -50.31 50
NA 12:00:00 TS 33.00 -49.80 50
NA 15:00:00 TS 33.47 -49.21 50
NA 18:00:00 TS 33.90 -48.60 50
NA 21:00:00 TS 34.35 -48.09 50
NA 1895-09-06 00:00:00 TS 34.80 -47.50 50
NA 03:00:00 TS 35.24 -46.66 50
NA 06:00:00 TS 35.70 -45.70 50
NA 09:00:00 TS 36.16 -44.76 47
NA 12:00:00 TS 36.70 -43.80 45
NA 15:00:00 TS 37.37 -42.83 45
NA 18:00:00 TS 38.10 -41.90 45
NA 21:00:00 TS 38.80 -41.06 45
NA 1895-09-07 00:00:00 TS 39.50 -40.20 45
NA 03:00:00 TS 40.21 -39.18 45
NA 06:00:00 TS 40.90 -38.10 45
NA 09:00:00 TS 41.52 -37.00 42
NA 12:00:00 TS 42.20 -36.00 40
NA 15:00:00 TS 43.06 -35.20 40
NA 18:00:00 TS 44.00 -34.50 40
NA 21:00:00 TS 44.91 -33.75 45
NA 1895-09-08 00:00:00 ET 45.80 -33.00 50
NA 03:00:00 ET 46.61 -32.25 52
NA 06:00:00 ET 47.40 -31.50 55
NA 09:00:00 ET 48.20 -30.76 57
NA 12:00:00 ET 49.00 -30.00 60 985

Source Information

Agency Information
USA
TOKYO
CMA
HKO
NEWDELHI
REUNION
BOM
NADI
WELLINGTON
DS824
TD9636
TD9635
NEUMANN
MLC

All available IBTrACS Data

SEASON BASIN SUBBASIN ISO_TIME_________ NATURE LAT LON DIST2LAND LANDFALL IFLAG USA SSHS MLC LAT MLC LON MLC CLASS MLC WIND MLC PRES STORM SPEED STORM DIR
Year degrees north degrees east km km 1 degrees north degrees east kts mb kts degrees
1895 NA NA 1895-09-01 12:00:00 TS 17.50 -50.00 1376 1376 _____________O -1 17.50 -50.00 TS 35 10 332
1895 NA NA 15:00:00 TS 17.95 -50.25 1421 1412 _____________P -1 17.95 -50.25 TS 37 10 332
1895 NA NA 18:00:00 TS 18.40 -50.50 1420 1418 _____________O -1 18.40 -50.50 TS 40 10 332
1895 NA NA 21:00:00 TS 18.85 -50.75 1422 1422 _____________P -1 18.85 -50.75 TS 40 10 332
1895 NA NA 1895-09-02 00:00:00 TS 19.30 -51.00 1441 1441 _____________O -1 19.30 -51.00 TS 40 10 333
1895 NA NA 03:00:00 TS 19.76 -51.25 1455 1455 _____________P -1 19.76 -51.25 TS 40 10 332
1895 NA NA 06:00:00 TS 20.20 -51.50 1471 1466 _____________O -1 20.20 -51.50 TS 40 10 330
1895 NA NA 09:00:00 TS 20.60 -51.77 1466 1450 _____________P -1 20.60 -51.77 TS 40 9 330
1895 NA NA 12:00:00 TS 21.00 -52.00 1452 1440 _____________O -1 21.00 -52.00 TS 40 9 336
1895 NA NA 15:00:00 TS 21.44 -52.17 1440 1436 _____________P -1 21.44 -52.17 TS 42 9 343
1895 NA NA 18:00:00 TS 21.90 -52.30 1441 1432 _____________O -1 21.90 -52.30 TS 45 10 343
1895 NA NA 21:00:00 TS 22.36 -52.46 1435 1432 _____________P -1 22.36 -52.46 TS 45 9 343
1895 NA NA 1895-09-03 00:00:00 TS 22.80 -52.60 1438 1438 _____________O -1 22.80 -52.60 TS 45 9 348
1895 NA NA 03:00:00 TS 23.20 -52.67 1443 1443 _____________P -1 23.20 -52.67 TS 45 8 354
1895 NA NA 06:00:00 TS 23.60 -52.70 1458 1458 _____________O -1 23.60 -52.70 TS 45 8 354
1895 NA NA 09:00:00 TS 24.04 -52.76 1466 1466 _____________P -1 24.04 -52.76 TS 45 9 355
1895 NA NA 12:00:00 TS 24.50 -52.80 1488 1488 _____________O -1 24.50 -52.80 TS 45 10 357
1895 NA NA 15:00:00 TS 24.99 -52.81 1512 1512 _____________P -1 24.99 -52.81 TS 47 10 1
1895 NA NA 18:00:00 TS 25.50 -52.80 1538 1538 _____________O -1 25.50 -52.80 TS 50 10 0
1895 NA NA 21:00:00 TS 26.00 -52.80 1566 1566 _____________P -1 26.00 -52.80 TS 50 10 1
1895 NA NA 1895-09-04 00:00:00 TS 26.50 -52.80 1594 1594 _____________O -1 26.50 -52.80 TS 50 10 1
1895 NA NA 03:00:00 TS 27.00 -52.80 1625 1625 _____________P -1 27.00 -52.80 TS 50 10 1
1895 NA NA 06:00:00 TS 27.50 -52.80 1656 1656 _____________O -1 27.50 -52.80 TS 50 10 359
1895 NA NA 09:00:00 TS 27.98 -52.81 1689 1689 _____________P -1 27.98 -52.81 TS 50 10 1
1895 NA NA 12:00:00 TS 28.50 -52.80 1723 1723 _____________O -1 28.50 -52.80 TS 50 11 3
1895 NA NA 15:00:00 TS 29.09 -52.76 1765 1765 _____________P -1 29.09 -52.76 TS 50 12 8
1895 NA NA 18:00:00 TS 29.70 -52.60 1823 1823 _____________O -1 29.70 -52.60 TS 50 12 20
1895 NA NA 21:00:00 TS 30.26 -52.26 1816 1763 _____________P -1 30.26 -52.26 TS 50 13 32
1895 NA NA 1895-09-05 00:00:00 TS 30.80 -51.80 1763 1710 _____________O -1 30.80 -51.80 TS 50 14 37
1895 NA NA 03:00:00 TS 31.35 -51.31 1710 1649 _____________P -1 31.35 -51.31 TS 50 14 38
1895 NA NA 06:00:00 TS 31.90 -50.80 1649 1598 _____________O -1 31.90 -50.80 TS 50 14 37
1895 NA NA 09:00:00 TS 32.46 -50.31 1588 1540 _____________P -1 32.46 -50.31 TS 50 14 37
1895 NA NA 12:00:00 TS 33.00 -49.80 1540 1505 _____________O -1 33.00 -49.80 TS 50 14 43
1895 NA NA 15:00:00 TS 33.47 -49.21 1496 1463 _____________P -1 33.47 -49.21 TS 50 13 48
1895 NA NA 18:00:00 TS 33.90 -48.60 1465 1431 _____________O -1 33.90 -48.60 TS 50 13 46
1895 NA NA 21:00:00 TS 34.35 -48.09 1433 1393 _____________P -1 34.35 -48.09 TS 50 13 45
1895 NA NA 1895-09-06 00:00:00 TS 34.80 -47.50 1396 1375 _____________O -1 34.80 -47.50 TS 50 15 53
1895 NA NA 03:00:00 TS 35.24 -46.66 1379 1359 _____________P -1 35.24 -46.66 TS 50 17 59
1895 NA NA 06:00:00 TS 35.70 -45.70 1363 1350 _____________O -1 35.70 -45.70 TS 50 18 59
1895 NA NA 09:00:00 TS 36.16 -44.76 1349 1341 _____________P -1 36.16 -44.76 TS 47 18 57
1895 NA NA 12:00:00 TS 36.70 -43.80 1346 1330 _____________O -1 36.70 -43.80 TS 45 20 52
1895 NA NA 15:00:00 TS 37.37 -42.83 1332 1320 _____________P -1 37.37 -42.83 TS 45 21 47
1895 NA NA 18:00:00 TS 38.10 -41.90 1320 1310 _____________O -1 38.10 -41.90 TS 45 20 44
1895 NA NA 21:00:00 TS 38.80 -41.06 1310 1305 _____________P -1 38.80 -41.06 TS 45 19 43
1895 NA NA 1895-09-07 00:00:00 TS 39.50 -40.20 1312 1310 _____________O -1 39.50 -40.20 TS 45 20 46
1895 NA NA 03:00:00 TS 40.21 -39.18 1326 1326 _____________P -1 40.21 -39.18 TS 45 21 49
1895 NA NA 06:00:00 TS 40.90 -38.10 1355 1355 _____________O -1 40.90 -38.10 TS 45 21 51
1895 NA NA 09:00:00 TS 41.52 -37.00 1397 1397 _____________P -1 41.52 -37.00 TS 42 20 50
1895 NA NA 12:00:00 TS 42.20 -36.00 1426 1426 _____________O -1 42.20 -36.00 TS 40 20 41
1895 NA NA 15:00:00 TS 43.06 -35.20 1437 1437 _____________P -1 43.06 -35.20 TS 40 21 31
1895 NA NA 18:00:00 TS 44.00 -34.50 1447 1443 _____________O -1 44.00 -34.50 TS 40 21 29
1895 NA NA 21:00:00 TS 44.91 -33.75 1473 1469 _____________P -1 44.91 -33.75 TS 45 21 31
1895 NA NA 1895-09-08 00:00:00 ET 45.80 -33.00 1497 1497 _____________O -1 45.80 -33.00 EX 50 20 32
1895 NA NA 03:00:00 ET 46.61 -32.25 1537 1535 _____________P -1 46.61 -32.25 EX 52 19 33
1895 NA NA 06:00:00 ET 47.40 -31.50 1574 1497 _____________O -1 47.40 -31.50 EX 55 19 33
1895 NA NA 09:00:00 ET 48.20 -30.76 1497 1408 _____________P -1 48.20 -30.76 EX 57 19 32
1895 NA NA 12:00:00 ET 49.00 -30.00 1408 _____________O -1 49.00 -30.00 EX 60 985 19 32